createdAt,value
2018-12-30T00:02:17.297Z,8.50
2018-12-30T00:07:22.562Z,7.97
2018-12-30T00:12:27.854Z,8.33
2018-12-30T00:17:33.088Z,7.50
2018-12-30T00:22:38.363Z,8.13
2018-12-30T00:27:43.866Z,8.77
2018-12-30T00:32:49.108Z,9.73
2018-12-30T00:37:54.357Z,8.77
2018-12-30T00:42:59.677Z,8.70
2018-12-30T00:48:04.960Z,9.30
2018-12-30T00:53:10.227Z,8.43
2018-12-30T00:58:15.483Z,9.13
2018-12-30T01:03:20.723Z,9.07
2018-12-30T01:08:25.990Z,8.60
2018-12-30T01:13:31.241Z,9.60
2018-12-30T01:18:36.472Z,9.57
2018-12-30T01:23:41.725Z,9.27
2018-12-30T01:28:46.965Z,9.17
2018-12-30T01:33:52.208Z,9.13
2018-12-30T01:38:57.507Z,9.80
2018-12-30T01:44:02.754Z,10.00
2018-12-30T01:49:07.996Z,9.33
2018-12-30T01:54:13.278Z,8.83
2018-12-30T01:59:18.521Z,9.20
2018-12-30T02:04:23.754Z,9.37
2018-12-30T02:09:29.011Z,9.33
2018-12-30T02:14:34.277Z,9.63
2018-12-30T02:19:39.547Z,8.57
2018-12-30T02:24:44.785Z,8.77
2018-12-30T02:29:50.016Z,8.17
2018-12-30T02:34:55.443Z,8.07
2018-12-30T02:40:00.681Z,7.73
2018-12-30T02:45:06.063Z,6.90
2018-12-30T02:50:11.316Z,6.73
2018-12-30T02:55:16.582Z,7.00
2018-12-30T03:00:21.889Z,7.37
2018-12-30T03:05:27.173Z,6.47
2018-12-30T03:10:32.425Z,6.23
2018-12-30T03:15:37.744Z,5.37
2018-12-30T03:20:42.986Z,5.60
2018-12-30T03:25:48.255Z,5.57
2018-12-30T03:30:53.496Z,5.63
2018-12-30T03:35:58.754Z,4.87
2018-12-30T03:41:04.029Z,4.77
2018-12-30T03:46:09.262Z,3.80
2018-12-30T03:51:14.529Z,3.33
2018-12-30T03:56:19.793Z,3.10
2018-12-30T04:01:25.062Z,2.90
2018-12-30T04:06:30.311Z,2.57
2018-12-30T04:11:35.552Z,2.10
2018-12-30T04:16:40.806Z,1.87
2018-12-30T04:21:46.072Z,1.90
2018-12-30T04:26:51.329Z,1.67
2018-12-30T04:31:56.542Z,1.80
2018-12-30T04:37:01.834Z,1.47
2018-12-30T04:42:07.067Z,1.70
2018-12-30T04:47:12.367Z,1.30
2018-12-30T04:52:25.847Z,1.63
2018-12-30T04:57:29.574Z,1.50
2018-12-30T05:02:34.817Z,2.10
2018-12-30T05:07:40.050Z,1.50
2018-12-30T05:12:45.302Z,1.40
2018-12-30T05:17:50.558Z,1.37
2018-12-30T05:22:55.792Z,1.10
2018-12-30T05:28:01.039Z,1.30
2018-12-30T05:33:06.274Z,1.20
2018-12-30T05:38:11.502Z,1.07
2018-12-30T05:43:16.756Z,1.00
2018-12-30T05:48:22.029Z,1.07
2018-12-30T05:53:27.282Z,0.80
2018-12-30T05:58:32.559Z,0.80
2018-12-30T06:03:37.777Z,0.60
2018-12-30T06:08:43.013Z,0.60
2018-12-30T06:13:48.262Z,0.80
2018-12-30T06:18:53.602Z,0.57
2018-12-30T06:23:58.837Z,0.60
2018-12-30T06:29:04.095Z,0.80
2018-12-30T06:34:09.342Z,0.60
2018-12-30T06:39:14.592Z,0.80
2018-12-30T06:44:19.822Z,0.90
2018-12-30T06:49:25.043Z,0.70
2018-12-30T06:54:30.516Z,0.97
2018-12-30T06:59:35.761Z,1.20
2018-12-30T07:04:41.090Z,1.60
2018-12-30T07:09:46.340Z,1.50
2018-12-30T07:14:51.568Z,1.60
2018-12-30T07:19:56.830Z,1.37
2018-12-30T07:25:02.118Z,1.33
2018-12-30T07:30:07.419Z,1.87
2018-12-30T07:35:12.655Z,1.60
2018-12-30T07:40:17.962Z,1.00
2018-12-30T07:45:23.198Z,0.90
2018-12-30T07:50:28.445Z,1.17
2018-12-30T07:55:33.738Z,1.53
2018-12-30T08:00:38.978Z,1.67
2018-12-30T08:05:44.322Z,2.20
2018-12-30T08:10:49.598Z,2.23
2018-12-30T08:15:54.890Z,2.70
2018-12-30T08:21:00.125Z,2.47
2018-12-30T08:26:05.349Z,2.87
2018-12-30T08:31:10.632Z,2.70
2018-12-30T08:36:15.862Z,2.70
2018-12-30T08:41:21.169Z,2.40
2018-12-30T08:46:26.427Z,1.97
2018-12-30T08:51:31.645Z,2.13
2018-12-30T08:56:36.963Z,2.43
2018-12-30T09:01:42.213Z,2.00
2018-12-30T09:06:47.442Z,1.80
2018-12-30T09:11:52.681Z,1.83
2018-12-30T09:16:57.906Z,1.70
2018-12-30T09:22:03.142Z,1.43
2018-12-30T09:27:08.388Z,1.33
2018-12-30T09:32:13.621Z,1.77
2018-12-30T09:37:19.343Z,2.00
2018-12-30T09:42:25.157Z,1.47
2018-12-30T09:47:30.414Z,1.90
2018-12-30T09:52:35.691Z,1.67
2018-12-30T09:57:40.945Z,1.60
2018-12-30T10:02:46.200Z,1.23
2018-12-30T10:07:51.455Z,1.50
2018-12-30T10:12:56.726Z,1.50
2018-12-30T10:18:02.033Z,1.80
2018-12-30T10:23:07.271Z,1.40
2018-12-30T10:28:12.529Z,1.10
2018-12-30T10:33:17.781Z,1.50
2018-12-30T10:38:23.017Z,1.00
2018-12-30T10:43:28.302Z,1.20
2018-12-30T10:48:33.535Z,1.60
2018-12-30T10:53:38.913Z,1.60
2018-12-30T10:58:44.549Z,1.40
2018-12-30T11:03:49.833Z,1.67
2018-12-30T11:08:55.067Z,1.60
2018-12-30T11:14:00.305Z,1.47
2018-12-30T11:19:05.562Z,1.40
2018-12-30T11:24:10.798Z,1.37
2018-12-30T11:29:16.141Z,2.40
2018-12-30T11:34:21.445Z,1.67
2018-12-30T11:39:26.721Z,1.47
2018-12-30T11:44:32.109Z,1.57
2018-12-30T11:49:37.630Z,1.67
2018-12-30T11:54:42.929Z,1.70
2018-12-30T11:59:48.172Z,1.23
2018-12-30T12:04:53.514Z,1.67
2018-12-30T12:09:58.742Z,1.67
2018-12-30T12:15:04.066Z,1.70
2018-12-30T12:20:09.363Z,1.50
2018-12-30T12:25:14.640Z,1.63
2018-12-30T12:30:19.897Z,1.70
2018-12-30T12:35:25.178Z,1.80
2018-12-30T12:40:30.445Z,1.80
2018-12-30T12:45:35.714Z,1.30
2018-12-30T12:50:40.981Z,1.20
2018-12-30T12:55:46.296Z,1.40
2018-12-30T13:00:51.510Z,1.30
2018-12-30T13:05:56.806Z,1.40
2018-12-30T13:11:02.049Z,1.63
2018-12-30T13:16:07.294Z,1.40
2018-12-30T13:21:12.557Z,1.40
2018-12-30T13:26:17.830Z,2.70
2018-12-30T13:31:23.097Z,1.30
2018-12-30T13:36:28.357Z,1.27
2018-12-30T13:41:33.590Z,1.23
2018-12-30T13:46:38.842Z,1.67
2018-12-30T13:51:44.110Z,2.07
2018-12-30T13:56:49.419Z,1.50
2018-12-30T14:01:54.648Z,1.80
2018-12-30T14:06:59.913Z,1.60
2018-12-30T14:12:05.149Z,1.40
2018-12-30T14:17:10.407Z,2.13
2018-12-30T14:22:15.647Z,2.47
2018-12-30T14:27:20.919Z,2.27
2018-12-30T14:32:26.221Z,4.40
2018-12-30T14:37:31.494Z,1.97
2018-12-30T14:42:36.721Z,2.67
2018-12-30T14:47:41.964Z,3.50
2018-12-30T14:52:47.214Z,1.63
2018-12-30T14:57:52.465Z,1.70
2018-12-30T15:02:57.714Z,1.97
2018-12-30T15:08:02.961Z,2.40
2018-12-30T15:13:08.282Z,2.07
2018-12-30T15:18:14.449Z,1.80
2018-12-30T15:23:19.697Z,2.03
2018-12-30T15:28:24.951Z,1.37
2018-12-30T15:33:30.184Z,1.87
2018-12-30T15:38:35.523Z,2.67
2018-12-30T15:43:40.747Z,1.40
2018-12-30T15:48:46.011Z,1.47
2018-12-30T15:53:51.290Z,1.93
2018-12-30T15:58:56.543Z,2.23
2018-12-30T16:04:01.773Z,1.40
2018-12-30T16:09:08.946Z,1.50
2018-12-30T16:14:14.219Z,1.97
2018-12-30T16:19:19.521Z,2.37
2018-12-30T16:24:24.767Z,1.90
2018-12-30T16:29:30.021Z,1.70
2018-12-30T16:34:35.250Z,1.90
2018-12-30T16:39:40.490Z,2.50
2018-12-30T16:44:45.751Z,1.73
2018-12-30T16:49:50.959Z,2.27
2018-12-30T16:54:56.201Z,1.60
2018-12-30T17:00:01.409Z,2.27
2018-12-30T17:05:08.665Z,2.00
2018-12-30T17:10:13.889Z,2.90
2018-12-30T17:15:19.105Z,1.90
2018-12-30T17:20:24.316Z,2.20
2018-12-30T17:25:29.537Z,1.80
2018-12-30T17:30:34.785Z,2.40
2018-12-30T17:35:39.993Z,2.07
2018-12-30T17:40:45.215Z,1.73
2018-12-30T17:45:53.364Z,1.53
2018-12-30T17:50:58.643Z,1.60
2018-12-30T17:56:04.293Z,2.00
2018-12-30T18:01:09.526Z,1.47
2018-12-30T18:06:14.762Z,2.33
2018-12-30T18:11:20.007Z,1.80
2018-12-30T18:16:25.294Z,1.83
2018-12-30T18:21:30.540Z,1.33
2018-12-30T18:26:37.987Z,1.87
2018-12-30T18:31:41.145Z,1.60
2018-12-30T18:36:46.405Z,1.77
2018-12-30T18:41:51.704Z,1.83
2018-12-30T18:46:56.994Z,1.80
2018-12-30T18:52:02.244Z,1.80
2018-12-30T18:57:07.588Z,3.10
2018-12-30T19:02:14.018Z,3.03
2018-12-30T19:07:19.289Z,3.10
2018-12-30T19:12:24.649Z,2.60
2018-12-30T19:17:29.910Z,2.20
2018-12-30T19:22:35.192Z,3.23
2018-12-30T19:27:40.485Z,2.13
2018-12-30T19:32:45.777Z,2.10
2018-12-30T19:37:51.101Z,2.40
2018-12-30T19:42:56.390Z,2.27
2018-12-30T19:48:01.680Z,2.03
2018-12-30T19:53:06.957Z,1.80
2018-12-30T19:58:12.209Z,2.40
2018-12-30T20:03:17.457Z,1.90
2018-12-30T20:08:23.701Z,3.83
2018-12-30T20:13:28.962Z,3.90
2018-12-30T20:18:34.266Z,2.67
2018-12-30T20:23:39.519Z,2.47
2018-12-30T20:28:44.798Z,2.47
2018-12-30T20:33:50.031Z,2.23
2018-12-30T20:38:55.266Z,1.87
2018-12-30T20:44:00.509Z,2.27
2018-12-30T20:49:05.794Z,2.73
2018-12-30T20:54:11.026Z,3.13
2018-12-30T20:59:16.257Z,2.13
2018-12-30T21:04:21.502Z,2.30
2018-12-30T21:09:26.750Z,1.97
2018-12-30T21:14:31.973Z,2.47
2018-12-30T21:19:37.206Z,2.60
2018-12-30T21:24:42.438Z,2.30
2018-12-30T21:29:47.692Z,2.23
2018-12-30T21:34:52.987Z,2.87
2018-12-30T21:39:58.254Z,2.77
2018-12-30T21:45:03.533Z,2.67
2018-12-30T21:50:09.534Z,2.40
2018-12-30T21:55:14.765Z,2.37
2018-12-30T22:00:20.014Z,2.60
2018-12-30T22:05:25.309Z,2.50
2018-12-30T22:10:30.549Z,2.70
2018-12-30T22:15:35.789Z,2.27
2018-12-30T22:20:41.117Z,2.37
2018-12-30T22:25:46.351Z,2.60
2018-12-30T22:30:51.677Z,3.43
2018-12-30T22:35:57.008Z,2.60
2018-12-30T22:41:02.329Z,3.50
2018-12-30T22:46:07.621Z,2.50
2018-12-30T22:51:12.953Z,2.63
2018-12-30T22:56:18.253Z,2.60
2018-12-30T23:01:27.557Z,2.40
2018-12-30T23:06:32.809Z,2.63
2018-12-30T23:11:38.093Z,2.33
2018-12-30T23:16:43.324Z,2.60
2018-12-30T23:21:48.601Z,3.17
2018-12-30T23:26:53.933Z,2.57
2018-12-30T23:31:59.244Z,2.50
2018-12-30T23:37:04.493Z,2.90
2018-12-30T23:42:09.713Z,3.57
2018-12-30T23:47:14.986Z,2.47
2018-12-30T23:52:20.261Z,3.47
2018-12-30T23:57:26.078Z,2.90
